Time;durP1;ratioP1;P1;durP2;ratioP2;P2;SDS_P1;SDS_P2;PMS_P1;PMS_P2;Temp;Humidity;BMP_temperature;BMP_pressure;BME280_temperature;BME280_humidity;BME280_pressure;Samples;Min_cycle;Max_cycle;Signal;HPM_P1;HPM_P2
2024/01/09 00:00:13;;;;;;;18.87;17.57;;;2.20;10.70;;;;;;4979529;28;20313;-79
2024/01/09 00:02:38;;;;;;;18.03;16.73;;;2.20;10.50;;;;;;4978576;28;20272;-80
2024/01/09 00:05:04;;;;;;;18.30;16.90;;;2.10;10.70;;;;;;4979231;28;20417;-79
2024/01/09 00:07:29;;;;;;;19.07;17.77;;;2.10;10.70;;;;;;4979745;28;20182;-80
2024/01/09 00:09:55;;;;;;;19.13;17.70;;;2.10;10.70;;;;;;4997026;28;20574;-80
2024/01/09 00:12:21;;;;;;;19.93;18.53;;;2.00;10.60;;;;;;4979081;28;20185;-80
2024/01/09 00:14:46;;;;;;;18.60;17.30;;;2.00;10.60;;;;;;4997448;28;20180;-80
2024/01/09 00:17:11;;;;;;;17.70;16.30;;;2.00;10.60;;;;;;4979918;28;20353;-79
2024/01/09 00:19:37;;;;;;;19.57;18.17;;;2.10;10.20;;;;;;4979551;28;20198;-80
2024/01/09 00:22:03;;;;;;;18.67;17.37;;;2.10;10.00;;;;;;4997192;28;20233;-80
2024/01/09 00:24:28;;;;;;;18.60;17.20;;;2.10;10.70;;;;;;4979898;28;20246;-80
2024/01/09 00:26:55;;;;;;;17.10;15.80;;;2.20;10.20;;;;;;4997553;28;20552;-80
2024/01/09 00:29:20;;;;;;;18.13;16.70;;;2.20;9.80;;;;;;4997331;28;20567;-80
2024/01/09 00:31:46;;;;;;;17.67;16.33;;;2.20;9.80;;;;;;4999518;28;20424;-81
2024/01/09 00:34:11;;;;;;;18.87;17.47;;;2.20;10.00;;;;;;5001502;28;20185;-80
2024/01/09 00:36:43;;;;;;;18.03;16.73;;;2.20;10.10;;;;;;5000770;28;20220;-80
2024/01/09 00:39:09;;;;;;;18.33;16.93;;;2.20;9.30;;;;;;4980970;28;20202;-80
2024/01/09 00:41:35;;;;;;;18.80;17.40;;;2.20;9.10;;;;;;4981044;28;20422;-81
2024/01/09 00:44:00;;;;;;;17.13;16.03;;;2.20;8.90;;;;;;4981829;28;20493;-80
2024/01/09 00:46:28;;;;;;;16.80;15.70;;;2.10;9.10;;;;;;5000600;28;20258;-80
2024/01/09 00:48:54;;;;;;;18.93;17.63;;;2.00;9.40;;;;;;4981946;28;20720;-80
2024/01/09 00:51:19;;;;;;;19.17;17.67;;;2.00;9.70;;;;;;4981630;28;20496;-80
2024/01/09 00:53:45;;;;;;;17.70;16.40;;;1.90;9.40;;;;;;4979891;28;20429;-80
2024/01/09 00:56:10;;;;;;;17.97;16.57;;;1.70;10.00;;;;;;4998257;28;20273;-80
2024/01/09 00:58:36;;;;;;;17.83;16.63;;;1.70;10.40;;;;;;4980259;28;20272;-80
2024/01/09 01:01:01;;;;;;;20.33;18.83;;;1.70;10.40;;;;;;4979702;28;20539;-80
2024/01/09 01:03:27;;;;;;;17.83;16.53;;;1.70;9.90;;;;;;4998759;28;20621;-80
2024/01/09 01:05:53;;;;;;;17.77;16.40;;;1.60;10.40;;;;;;4980844;28;20178;-80
2024/01/09 01:08:18;;;;;;;18.20;16.83;;;1.60;10.20;;;;;;4991094;28;20212;-80
2024/01/09 01:13:12;;;;;;;17.67;16.47;;;1.60;9.80;;;;;;5029636;28;20204;-59
2024/01/09 01:15:38;;;;;;;19.27;17.87;;;1.70;9.90;;;;;;5004556;28;20469;-62
2024/01/09 01:18:04;;;;;;;18.77;17.37;;;1.60;10.00;;;;;;5014919;28;20187;-59
2024/01/09 01:20:29;;;;;;;19.20;17.70;;;1.70;10.40;;;;;;5013622;28;20172;-60
2024/01/09 01:22:55;;;;;;;18.50;16.93;;;1.70;10.40;;;;;;5013605;28;20445;-60
2024/01/09 01:25:21;;;;;;;17.90;16.60;;;1.70;9.90;;;;;;5029412;28;20190;-60
2024/01/09 01:27:46;;;;;;;18.23;16.83;;;1.80;9.80;;;;;;5014094;28;20271;-58
2024/01/09 01:30:12;;;;;;;18.70;17.30;;;1.80;9.30;;;;;;5013535;28;20275;-59
2024/01/09 01:32:38;;;;;;;18.47;17.13;;;1.90;9.50;;;;;;5013015;28;20267;-60
2024/01/09 01:35:04;;;;;;;18.60;17.20;;;1.90;9.00;;;;;;5013629;28;20184;-59
2024/01/09 01:37:30;;;;;;;17.63;16.30;;;1.80;9.00;;;;;;5028009;28;20184;-60
2024/01/09 01:39:56;;;;;;;18.67;17.30;;;1.60;9.60;;;;;;5015278;28;20431;-59
2024/01/09 01:42:22;;;;;;;19.20;17.77;;;1.40;10.20;;;;;;5020438;28;20438;-60
2024/01/09 01:44:47;;;;;;;18.20;16.90;;;1.50;10.20;;;;;;5013965;28;20268;-60
2024/01/09 01:47:14;;;;;;;17.60;16.40;;;1.60;9.90;;;;;;5014179;28;20209;-60
2024/01/09 01:49:41;;;;;;;18.93;17.37;;;1.70;9.10;;;;;;5013827;28;20474;-60
2024/01/09 01:52:07;;;;;;;19.00;17.60;;;1.70;9.10;;;;;;5015049;28;20526;-59
2024/01/09 01:54:35;;;;;;;18.63;17.27;;;1.70;9.10;;;;;;5018817;28;20447;-60
2024/01/09 01:57:03;;;;;;;17.23;16.00;;;1.60;10.40;;;;;;5016374;28;20472;-60
2024/01/09 01:59:32;;;;;;;19.50;18.00;;;1.60;10.20;;;;;;5027685;28;20438;-60
2024/01/09 02:01:59;;;;;;;18.00;16.80;;;1.80;9.40;;;;;;5014102;28;20798;-60
2024/01/09 02:04:25;;;;;;;19.10;17.60;;;1.90;9.60;;;;;;5023311;28;20431;-60
2024/01/09 02:06:51;;;;;;;19.43;17.97;;;1.70;9.50;;;;;;5017483;28;20522;-60
2024/01/09 02:09:18;;;;;;;18.47;17.17;;;1.80;8.70;;;;;;5017258;28;20435;-60
2024/01/09 02:11:46;;;;;;;18.10;16.80;;;1.80;9.20;;;;;;5017219;28;20434;-60
2024/01/09 02:14:12;;;;;;;18.83;17.37;;;1.90;8.70;;;;;;5017120;28;20446;-60
2024/01/09 02:16:38;;;;;;;17.33;16.03;;;1.90;8.40;;;;;;5017207;28;20978;-60
2024/01/09 02:19:03;;;;;;;19.43;18.03;;;1.90;8.70;;;;;;5026932;28;20184;-60
2024/01/09 02:21:29;;;;;;;21.23;19.63;;;1.90;8.50;;;;;;5022495;28;20192;-60
2024/01/09 02:23:54;;;;;;;18.60;17.30;;;1.50;9.30;;;;;;5015859;28;20196;-60
2024/01/09 02:26:22;;;;;;;18.97;17.67;;;1.60;9.00;;;;;;5016570;28;20195;-60
2024/01/09 02:28:54;;;;;;;18.17;16.93;;;1.70;8.30;;;;;;5050211;28;20203;-60
2024/01/09 02:31:20;;;;;;;19.60;18.30;;;1.70;8.90;;;;;;5038127;28;20500;-59
2024/01/09 02:33:46;;;;;;;19.20;17.70;;;1.80;8.40;;;;;;5028771;28;20830;-60
2024/01/09 02:36:12;;;;;;;18.77;17.47;;;1.80;8.60;;;;;;5015807;28;20513;-60
2024/01/09 02:38:38;;;;;;;19.30;17.77;;;1.70;8.60;;;;;;5016696;28;20435;-60
2024/01/09 02:41:05;;;;;;;19.73;18.33;;;1.70;8.90;;;;;;5034187;28;20227;-60
2024/01/09 02:43:30;;;;;;;18.80;17.50;;;1.70;8.80;;;;;;5016908;28;20450;-60
2024/01/09 02:45:56;;;;;;;20.20;18.60;;;1.80;8.30;;;;;;5004915;28;20443;-62
2024/01/09 02:48:21;;;;;;;19.17;17.57;;;1.90;8.10;;;;;;5018283;28;20578;-62
2024/01/09 02:50:47;;;;;;;14.67;13.77;;;1.70;8.00;;;;;;5016131;28;20249;-62
2024/01/09 02:53:13;;;;;;;19.47;18.13;;;1.70;8.70;;;;;;5015484;28;20275;-62
2024/01/09 02:55:38;;;;;;;18.67;17.27;;;1.60;8.40;;;;;;5022781;28;20257;-62
2024/01/09 02:58:04;;;;;;;19.20;17.80;;;1.60;8.40;;;;;;5017940;28;20193;-62
2024/01/09 03:00:30;;;;;;;18.60;17.30;;;1.70;8.10;;;;;;5016308;28;20185;-61
2024/01/09 03:02:56;;;;;;;19.30;17.80;;;1.70;8.10;;;;;;5018384;28;20192;-61
2024/01/09 03:05:22;;;;;;;20.33;18.73;;;1.60;8.30;;;;;;5016314;28;20431;-61
2024/01/09 03:07:48;;;;;;;19.73;18.17;;;1.60;8.70;;;;;;5044637;28;20198;-61
2024/01/09 03:10:14;;;;;;;20.47;18.97;;;1.60;8.50;;;;;;5016640;28;20431;-61
2024/01/09 03:12:39;;;;;;;19.17;17.67;;;1.50;8.80;;;;;;5015628;28;20562;-61
2024/01/09 03:15:06;;;;;;;18.90;17.50;;;1.50;8.70;;;;;;5014988;28;20436;-61
2024/01/09 03:17:31;;;;;;;18.63;17.33;;;1.60;8.30;;;;;;5021996;28;20188;-61
2024/01/09 03:19:57;;;;;;;18.57;17.13;;;1.70;8.30;;;;;;5018687;28;20431;-62
2024/01/09 03:22:22;;;;;;;19.63;18.23;;;1.70;9.00;;;;;;5015550;28;20181;-61
2024/01/09 03:24:48;;;;;;;19.37;17.87;;;1.70;8.20;;;;;;5016400;28;20177;-61
2024/01/09 03:27:14;;;;;;;18.90;17.50;;;1.70;8.10;;;;;;5031136;28;20196;-61
2024/01/09 03:29:40;;;;;;;19.80;18.20;;;1.70;7.90;;;;;;5016011;28;20185;-61
2024/01/09 03:32:06;;;;;;;18.33;17.07;;;1.70;7.90;;;;;;5015218;28;20199;-61
2024/01/09 03:34:31;;;;;;;18.97;17.47;;;1.70;7.90;;;;;;5038676;28;20469;-61
2024/01/09 03:36:57;;;;;;;18.80;17.37;;;1.80;7.70;;;;;;5027202;28;21034;-61
2024/01/09 03:39:23;;;;;;;18.77;17.37;;;1.90;7.70;;;;;;5015791;28;20621;-61
2024/01/09 03:41:48;;;;;;;17.80;16.70;;;1.90;7.30;;;;;;5015413;28;20177;-61
2024/01/09 03:44:14;;;;;;;19.33;17.90;;;1.90;7.20;;;;;;5018078;28;20192;-61
2024/01/09 03:46:40;;;;;;;20.50;18.90;;;1.80;7.50;;;;;;5045119;28;20172;-62
2024/01/09 03:49:06;;;;;;;20.30;18.80;;;1.70;7.40;;;;;;5017248;28;20184;-62
2024/01/09 03:51:31;;;;;;;18.33;17.10;;;1.70;7.40;;;;;;5014985;28;20188;-62
2024/01/09 03:53:57;;;;;;;19.40;17.97;;;1.80;7.50;;;;;;5041405;28;20688;-62
2024/01/09 03:56:25;;;;;;;20.00;18.50;;;1.70;7.90;;;;;;5049460;28;20577;-62
2024/01/09 03:58:52;;;;;;;19.70;18.40;;;1.60;7.80;;;;;;5015342;28;20185;-62
2024/01/09 04:01:18;;;;;;;19.90;18.50;;;1.60;7.80;;;;;;5014630;28;20435;-62
2024/01/09 04:03:45;;;;;;;20.80;19.30;;;1.70;7.30;;;;;;5023454;28;20461;-62
2024/01/09 04:06:11;;;;;;;17.53;16.23;;;1.80;7.50;;;;;;5016563;28;20442;-62
2024/01/09 04:08:36;;;;;;;19.77;18.37;;;1.70;8.00;;;;;;5015198;28;20803;-59
2024/01/09 04:11:03;;;;;;;18.47;17.10;;;1.70;7.60;;;;;;5014871;28;20193;-59
2024/01/09 04:13:29;;;;;;;19.57;18.07;;;1.80;7.80;;;;;;5022384;28;20220;-61
2024/01/09 04:15:55;;;;;;;20.33;18.83;;;1.80;7.30;;;;;;5015021;28;20510;-62
2024/01/09 04:18:20;;;;;;;18.60;17.40;;;1.70;7.00;;;;;;5014830;28;20185;-61
2024/01/09 04:20:46;;;;;;;17.87;16.67;;;1.70;7.40;;;;;;5014935;28;20196;-61
2024/01/09 04:23:11;;;;;;;18.60;17.20;;;1.70;7.30;;;;;;5014126;28;20279;-61
2024/01/09 04:25:37;;;;;;;18.57;17.07;;;1.80;7.60;;;;;;5014975;28;20558;-61
2024/01/09 04:28:03;;;;;;;18.93;17.47;;;1.80;7.10;;;;;;5014736;28;20287;-59
2024/01/09 04:30:29;;;;;;;19.10;17.80;;;1.80;7.00;;;;;;5014785;28;20195;-57
2024/01/09 04:32:54;;;;;;;18.50;17.20;;;1.70;7.90;;;;;;5021796;28;20466;-62
2024/01/09 04:35:20;;;;;;;20.87;19.27;;;1.70;7.40;;;;;;5014607;28;20714;-62
2024/01/09 04:37:45;;;;;;;17.87;16.57;;;1.80;7.20;;;;;;5039014;28;20184;-62
2024/01/09 04:40:11;;;;;;;20.23;18.80;;;1.90;6.80;;;;;;5016040;28;20184;-62
2024/01/09 04:42:37;;;;;;;19.00;17.70;;;2.00;6.70;;;;;;5014360;28;20188;-62
2024/01/09 04:45:03;;;;;;;18.80;17.50;;;1.90;7.30;;;;;;5015140;28;20652;-62
2024/01/09 04:47:29;;;;;;;18.60;17.30;;;1.90;7.10;;;;;;5048130;28;20184;-62
2024/01/09 04:49:54;;;;;;;17.97;16.63;;;2.00;6.80;;;;;;5014458;28;20439;-63
2024/01/09 04:52:20;;;;;;;19.90;18.50;;;2.00;6.60;;;;;;5013759;28;20419;-62
2024/01/09 04:54:46;;;;;;;18.07;16.87;;;2.00;6.70;;;;;;5014528;28;20228;-62
2024/01/09 04:57:12;;;;;;;18.60;17.20;;;2.00;6.40;;;;;;5014259;28;20214;-62
2024/01/09 04:59:37;;;;;;;19.53;18.10;;;1.80;7.00;;;;;;5021799;28;20446;-63
2024/01/09 05:02:03;;;;;;;18.93;17.53;;;1.90;7.10;;;;;;5025045;28;20244;-62
2024/01/09 05:04:29;;;;;;;18.70;17.40;;;1.60;7.60;;;;;;5014484;28;20703;-63
2024/01/09 05:06:55;;;;;;;18.77;17.47;;;1.70;7.00;;;;;;5026487;28;20431;-62
2024/01/09 05:09:21;;;;;;;18.70;17.33;;;1.70;7.80;;;;;;5014606;28;20942;-62
2024/01/09 05:11:46;;;;;;;18.57;17.30;;;1.80;6.90;;;;;;5013928;28;20200;-62
2024/01/09 05:14:12;;;;;;;19.60;18.20;;;1.80;6.80;;;;;;5014339;28;20613;-62
2024/01/09 05:16:37;;;;;;;17.10;15.90;;;1.90;6.30;;;;;;5022195;28;20210;-60
2024/01/09 05:19:03;;;;;;;17.83;16.43;;;2.00;6.40;;;;;;5017099;28;20238;-60
2024/01/09 05:21:30;;;;;;;19.70;18.30;;;2.00;6.00;;;;;;5013942;28;20307;-60
2024/01/09 05:23:56;;;;;;;17.67;16.37;;;2.10;5.80;;;;;;5013977;28;20188;-60
2024/01/09 05:26:22;;;;;;;19.03;17.63;;;2.00;6.60;;;;;;5025739;28;20492;-59
2024/01/09 05:28:47;;;;;;;17.40;16.20;;;1.90;6.50;;;;;;5019641;28;20442;-60
2024/01/09 05:31:13;;;;;;;19.03;17.63;;;1.90;6.20;;;;;;5013822;28;20545;-60
2024/01/09 05:33:39;;;;;;;17.50;16.30;;;1.90;6.00;;;;;;5014042;28;20418;-60
2024/01/09 05:36:06;;;;;;;18.47;17.07;;;2.00;7.10;;;;;;5013804;28;20567;-59
2024/01/09 05:38:32;;;;;;;18.30;16.90;;;2.00;6.40;;;;;;5023189;28;20323;-61
2024/01/09 05:40:58;;;;;;;18.53;17.20;;;1.90;6.00;;;;;;5047572;28;20433;-61
2024/01/09 05:43:24;;;;;;;18.10;16.77;;;1.80;6.20;;;;;;5017793;28;20507;-61
2024/01/09 05:45:49;;;;;;;18.53;17.07;;;1.50;6.40;;;;;;5018127;28;20192;-61
2024/01/09 05:48:15;;;;;;;19.27;17.87;;;1.50;6.70;;;;;;5018007;28;20931;-60
2024/01/09 05:50:40;;;;;;;21.23;19.23;;;1.20;7.20;;;;;;5018183;28;20193;-61
2024/01/09 05:53:07;;;;;;;18.83;17.33;;;1.00;7.80;;;;;;5017289;28;20552;-61
2024/01/09 05:55:33;;;;;;;18.73;17.27;;;1.00;7.40;;;;;;5017898;28;20267;-61
2024/01/09 05:57:59;;;;;;;18.47;17.07;;;1.00;7.50;;;;;;5017840;28;20830;-61
2024/01/09 06:00:24;;;;;;;19.07;17.77;;;1.20;7.80;;;;;;5017720;28;20466;-61
2024/01/09 06:02:51;;;;;;;19.20;17.70;;;1.30;7.30;;;;;;5017582;28;20184;-61
2024/01/09 06:05:17;;;;;;;17.63;16.43;;;1.40;7.10;;;;;;5020115;28;20985;-62
2024/01/09 06:07:42;;;;;;;18.70;17.07;;;1.50;6.80;;;;;;5017749;28;20419;-61
2024/01/09 06:10:08;;;;;;;18.60;17.30;;;1.50;6.60;;;;;;5018205;28;20189;-61
2024/01/09 06:12:34;;;;;;;18.17;16.77;;;1.50;6.30;;;;;;5024539;28;20506;-61
2024/01/09 06:15:03;;;;;;;17.70;16.50;;;1.60;6.10;;;;;;5021321;28;20517;-60
2024/01/09 06:17:29;;;;;;;18.70;17.10;;;1.60;6.70;;;;;;5017478;28;20287;-61
2024/01/09 06:19:54;;;;;;;17.50;16.10;;;1.70;6.10;;;;;;5017620;28;20506;-61
2024/01/09 06:22:20;;;;;;;19.87;18.37;;;1.60;6.50;;;;;;5019247;28;20180;-60
2024/01/09 06:24:46;;;;;;;20.00;18.60;;;1.60;6.30;;;;;;5023535;28;20490;-59
2024/01/09 06:27:11;;;;;;;19.43;17.93;;;1.80;5.90;;;;;;5017345;28;20793;-58
2024/01/09 06:29:37;;;;;;;19.23;17.83;;;1.80;5.60;;;;;;5017368;28;20180;-58
2024/01/09 06:32:03;;;;;;;18.80;17.40;;;1.80;5.70;;;;;;5016828;28;20192;-59
2024/01/09 06:34:28;;;;;;;19.97;18.57;;;1.80;5.60;;;;;;5020315;28;20274;-58
2024/01/09 06:36:54;;;;;;;19.97;18.40;;;1.70;5.70;;;;;;5021880;28;20291;-58
2024/01/09 06:39:20;;;;;;;18.70;17.30;;;1.70;6.70;;;;;;5034400;28;20181;-58
2024/01/09 06:41:46;;;;;;;17.67;16.37;;;1.70;6.20;;;;;;5018850;28;20453;-58
2024/01/09 06:44:11;;;;;;;19.90;18.33;;;1.80;6.20;;;;;;5019822;28;20191;-58
2024/01/09 06:46:37;;;;;;;19.17;17.77;;;1.80;5.90;;;;;;5043240;28;20207;-58
2024/01/09 06:49:03;;;;;;;18.03;16.73;;;1.60;6.40;;;;;;5015739;28;20181;-58
2024/01/09 06:51:29;;;;;;;18.43;17.13;;;1.60;6.30;;;;;;5023180;28;20181;-58
2024/01/09 06:53:55;;;;;;;17.93;16.60;;;1.60;6.40;;;;;;5020293;28;20216;-60
2024/01/09 06:56:21;;;;;;;17.20;16.00;;;1.70;6.40;;;;;;5028377;28;20586;-61
2024/01/09 06:58:47;;;;;;;17.77;16.47;;;1.80;6.20;;;;;;5046096;28;20426;-59
2024/01/09 07:01:12;;;;;;;17.57;16.17;;;1.90;5.90;;;;;;5018259;28;20451;-58
2024/01/09 07:03:38;;;;;;;18.40;17.10;;;1.90;5.90;;;;;;5016353;28;20427;-58
2024/01/09 07:06:04;;;;;;;17.87;16.67;;;1.80;5.80;;;;;;5016341;28;20271;-58
2024/01/09 07:08:30;;;;;;;19.00;17.60;;;1.60;6.40;;;;;;5019566;28;20188;-58
2024/01/09 07:10:57;;;;;;;18.30;17.00;;;1.80;6.20;;;;;;5027801;28;20430;-56
2024/01/09 07:13:23;;;;;;;18.73;17.17;;;1.80;7.60;;;;;;5016660;28;20443;-58
2024/01/09 07:15:49;;;;;;;18.20;16.80;;;1.70;6.80;;;;;;5030089;28;20617;-58
2024/01/09 07:18:15;;;;;;;18.57;17.07;;;1.80;6.30;;;;;;5017104;28;20475;-59
2024/01/09 07:20:42;;;;;;;17.23;16.03;;;1.90;6.10;;;;;;5026990;28;20508;-59
2024/01/09 07:23:07;;;;;;;18.90;17.53;;;1.90;6.00;;;;;;5018387;28;20581;-59
2024/01/09 07:25:33;;;;;;;16.67;15.47;;;1.90;6.60;;;;;;5011761;28;20947;-58
2024/01/09 07:27:59;;;;;;;18.83;17.43;;;1.80;6.30;;;;;;5016287;28;20231;-58
2024/01/09 07:30:25;;;;;;;18.20;16.80;;;1.90;6.20;;;;;;5015342;28;20274;-59
2024/01/09 07:32:50;;;;;;;20.13;18.60;;;2.00;6.00;;;;;;5015035;28;20176;-61
2024/01/09 07:35:16;;;;;;;18.50;17.10;;;2.10;6.20;;;;;;5015627;28;20197;-61
2024/01/09 07:37:42;;;;;;;18.20;16.80;;;2.00;5.70;;;;;;5015961;28;20199;-62
2024/01/09 07:40:08;;;;;;;18.47;17.07;;;1.80;6.10;;;;;;5015615;28;20427;-61
2024/01/09 07:42:34;;;;;;;18.40;17.00;;;1.60;6.80;;;;;;5015335;28;20656;-63
2024/01/09 07:44:59;;;;;;;20.07;18.47;;;1.60;6.90;;;;;;5015656;28;20535;-61
2024/01/09 07:47:25;;;;;;;19.40;17.97;;;1.60;6.80;;;;;;5018038;28;20207;-61
2024/01/09 07:49:51;;;;;;;18.23;16.93;;;1.60;6.40;;;;;;5021575;28;20551;-61
2024/01/09 07:52:16;;;;;;;17.50;16.20;;;1.70;6.20;;;;;;5014841;28;20195;-61
2024/01/09 07:54:42;;;;;;;18.57;17.17;;;1.80;5.90;;;;;;5041445;28;20229;-61
2024/01/09 07:57:07;;;;;;;19.10;17.10;;;1.80;5.90;;;;;;5041264;28;20204;-61
2024/01/09 07:59:33;;;;;;;19.37;17.87;;;1.80;5.90;;;;;;5002197;28;20172;-61
2024/01/09 08:02:01;;;;;;;18.40;17.00;;;1.80;5.80;;;;;;5019311;28;20180;-61
2024/01/09 08:04:26;;;;;;;18.37;16.97;;;1.80;5.50;;;;;;5015154;28;20191;-60
2024/01/09 08:06:52;;;;;;;18.23;17.03;;;1.80;6.20;;;;;;5020949;28;20427;-61
2024/01/09 08:09:18;;;;;;;18.80;17.30;;;1.80;5.80;;;;;;5019078;28;20675;-60
2024/01/09 08:11:47;;;;;;;18.50;17.30;;;1.90;5.30;;;;;;5014695;28;20197;-60
2024/01/09 08:14:14;;;;;;;19.10;17.70;;;2.00;5.50;;;;;;5015108;28;20454;-60
2024/01/09 08:16:40;;;;;;;22.50;20.80;;;2.00;5.50;;;;;;5022532;28;20491;-60
2024/01/09 08:19:09;;;;;;;36.03;32.60;;;2.00;5.40;;;;;;5014917;28;20419;-62
2024/01/09 08:21:35;;;;;;;20.60;19.00;;;2.00;5.60;;;;;;5014460;28;20424;-61
2024/01/09 08:24:02;;;;;;;18.40;17.03;;;2.00;5.00;;;;;;5014675;28;20430;-62
2024/01/09 08:26:28;;;;;;;19.43;18.03;;;2.00;5.20;;;;;;5018193;28;20453;-63
2024/01/09 08:28:54;;;;;;;20.33;18.80;;;2.00;5.70;;;;;;5020609;28;20928;-64
2024/01/09 08:31:19;;;;;;;18.00;16.50;;;2.10;5.50;;;;;;5040357;28;20707;-60
2024/01/09 08:33:45;;;;;;;20.93;19.43;;;2.00;5.00;;;;;;5014842;28;20180;-60
2024/01/09 08:36:11;;;;;;;18.13;16.70;;;2.00;5.30;;;;;;5021988;28;20211;-59
2024/01/09 08:38:37;;;;;;;19.50;18.20;;;2.00;5.00;;;;;;5004968;28;20652;-61
2024/01/09 08:41:04;;;;;;;19.47;17.97;;;2.20;5.00;;;;;;5019458;28;20539;-60
2024/01/09 08:43:29;;;;;;;19.50;18.00;;;2.20;4.70;;;;;;5014245;28;20432;-59
2024/01/09 08:45:55;;;;;;;21.40;19.60;;;2.30;4.90;;;;;;5014668;28;20946;-60
2024/01/09 08:48:21;;;;;;;18.73;17.40;;;2.00;4.80;;;;;;5014449;28;20259;-60
2024/01/09 08:50:48;;;;;;;20.97;19.27;;;2.00;4.80;;;;;;5014509;28;20442;-60
2024/01/09 08:53:14;;;;;;;20.67;19.07;;;2.00;4.80;;;;;;5013672;28;20184;-60
2024/01/09 08:55:39;;;;;;;20.97;19.33;;;2.10;4.40;;;;;;5025343;28;20980;-60
2024/01/09 08:58:05;;;;;;;21.73;19.97;;;2.10;4.30;;;;;;5018690;28;20803;-60
2024/01/09 09:00:31;;;;;;;19.60;18.20;;;2.20;4.50;;;;;;5014282;28;20193;-60
2024/01/09 09:02:57;;;;;;;19.50;18.00;;;2.10;4.30;;;;;;5013782;28;20208;-61
2024/01/09 09:05:22;;;;;;;20.00;18.50;;;2.20;4.50;;;;;;5015710;28;20833;-64
2024/01/09 09:07:50;;;;;;;20.60;19.20;;;2.30;4.50;;;;;;5021025;28;20227;-64
2024/01/09 09:10:16;;;;;;;21.47;19.87;;;2.40;4.30;;;;;;5016977;28;20523;-64
2024/01/09 09:12:42;;;;;;;21.13;19.57;;;2.50;4.90;;;;;;5012854;28;20466;-64
2024/01/09 09:15:08;;;;;;;21.43;19.93;;;2.20;5.30;;;;;;5023447;28;20841;-65
2024/01/09 09:17:34;;;;;;;23.73;21.53;;;2.20;5.30;;;;;;5013940;28;20549;-64
2024/01/09 09:20:00;;;;;;;20.80;19.20;;;2.30;5.00;;;;;;5014227;28;20511;-65
2024/01/09 09:22:26;;;;;;;20.73;19.10;;;2.40;5.20;;;;;;5027203;28;20188;-62
2024/01/09 09:24:55;;;;;;;20.40;18.80;;;2.50;6.70;;;;;;5023292;28;20428;-63
2024/01/09 09:27:21;;;;;;;19.73;18.23;;;2.70;6.50;;;;;;5043211;28;20175;-62
2024/01/09 09:29:46;;;;;;;23.00;21.20;;;2.40;8.00;;;;;;5043986;28;20427;-62
2024/01/09 09:32:12;;;;;;;21.27;19.57;;;2.40;8.80;;;;;;5013470;28;20184;-61
2024/01/09 09:34:41;;;;;;;22.33;20.53;;;2.40;5.40;;;;;;5031408;28;20636;-62
2024/01/09 09:37:07;;;;;;;21.40;19.73;;;2.10;5.80;;;;;;5013790;28;20287;-61
2024/01/09 09:39:36;;;;;;;21.90;20.23;;;2.00;5.60;;;;;;5016205;28;20412;-62
2024/01/09 09:42:02;;;;;;;20.83;19.33;;;1.90;7.20;;;;;;5018656;28;20862;-62
2024/01/09 09:44:27;;;;;;;21.03;19.43;;;1.70;6.20;;;;;;5013694;28;20427;-61
2024/01/09 09:46:55;;;;;;;23.30;21.40;;;1.60;6.10;;;;;;5033658;28;20644;-61
2024/01/09 09:49:22;;;;;;;20.57;19.03;;;1.60;6.30;;;;;;5016300;28;20522;-61
2024/01/09 09:51:50;;;;;;;21.70;20.20;;;1.50;6.50;;;;;;5013146;28;20486;-62
2024/01/09 09:54:17;;;;;;;22.87;21.17;;;1.70;6.90;;;;;;5013433;28;20434;-62
2024/01/09 09:56:44;;;;;;;22.13;20.33;;;1.90;6.50;;;;;;5013676;28;20800;-55
2024/01/09 09:59:13;;;;;;;21.83;20.23;;;1.90;5.50;;;;;;5039689;28;20416;-54
2024/01/09 10:01:44;;;;;;;22.70;21.00;;;2.00;5.40;;;;;;5013161;28;20423;-55
2024/01/09 10:04:24;;;;;;;21.20;19.50;;;2.20;4.50;;;;;;5021287;28;20510;-57
2024/01/09 10:06:52;;;;;;;20.73;19.23;;;2.40;4.20;;;;;;5030424;28;20894;-56
2024/01/09 10:09:19;;;;;;;20.63;19.13;;;2.60;4.60;;;;;;5024805;28;20439;-61
2024/01/09 10:11:49;;;;;;;20.27;18.57;;;2.60;4.30;;;;;;5020616;28;20431;-61
2024/01/09 10:14:14;;;;;;;20.67;19.07;;;2.60;4.90;;;;;;5023246;28;20431;-61
2024/01/09 10:16:51;;;;;;;20.93;19.33;;;2.70;3.80;;;;;;5021824;28;20461;-62
2024/01/09 10:19:17;;;;;;;21.10;19.50;;;2.80;3.50;;;;;;5013436;28;20226;-62
2024/01/09 10:21:43;;;;;;;21.57;19.83;;;2.90;2.60;;;;;;5013213;28;20479;-62
2024/01/09 10:24:09;;;;;;;22.60;21.00;;;2.90;2.90;;;;;;5014267;28;20739;-63
2024/01/09 10:26:35;;;;;;;20.80;19.20;;;2.90;2.90;;;;;;5018251;28;20445;-62
2024/01/09 10:29:03;;;;;;;20.83;19.33;;;3.00;2.60;;;;;;5017035;28;20431;-62
2024/01/09 10:31:30;;;;;;;19.57;18.23;;;2.90;3.10;;;;;;5016733;28;20798;-63
2024/01/09 10:33:56;;;;;;;20.67;19.10;;;2.80;2.70;;;;;;5016813;28;20466;-61
2024/01/09 10:36:22;;;;;;;20.00;18.40;;;2.70;3.20;;;;;;5016827;28;20466;-61
2024/01/09 10:38:48;;;;;;;20.97;19.47;;;2.60;3.10;;;;;;5024408;28;20534;-56
2024/01/09 10:41:20;;;;;;;20.67;19.17;;;2.50;3.60;;;;;;5020178;28;20419;-57
2024/01/09 10:43:47;;;;;;;21.10;19.40;;;2.30;3.60;;;;;;5025046;28;20420;-58
2024/01/09 10:46:14;;;;;;;20.97;19.37;;;2.40;3.60;;;;;;5020146;28;20431;-57
2024/01/09 10:48:41;;;;;;;20.13;18.67;;;2.50;3.40;;;;;;5006540;28;20438;-57
2024/01/09 10:51:10;;;;;;;20.50;18.80;;;2.20;3.50;;;;;;5021123;28;20434;-57
2024/01/09 10:53:38;;;;;;;20.20;18.67;;;2.30;3.00;;;;;;5017479;28;20458;-57
2024/01/09 10:56:08;;;;;;;20.00;18.43;;;2.30;3.90;;;;;;5029872;28;20459;-57
2024/01/09 10:58:35;;;;;;;19.80;18.30;;;2.00;4.70;;;;;;5016028;28;20430;-58
2024/01/09 11:01:01;;;;;;;21.53;19.83;;;2.00;4.70;;;;;;5022947;28;20478;-57
2024/01/09 11:03:26;;;;;;;20.53;19.03;;;2.00;4.70;;;;;;5016609;28;20423;-57
2024/01/09 11:05:58;;;;;;;18.50;17.20;;;1.90;4.50;;;;;;5023698;28;20537;-61
2024/01/09 11:08:25;;;;;;;20.00;18.40;;;2.00;4.30;;;;;;5019009;28;20184;-62
2024/01/09 11:10:52;;;;;;;20.23;18.63;;;2.10;4.10;;;;;;5016040;28;20435;-57
2024/01/09 11:13:19;;;;;;;20.40;19.00;;;2.20;3.40;;;;;;5018517;28;20511;-58
2024/01/09 11:15:52;;;;;;;19.57;18.10;;;2.40;2.70;;;;;;5016267;28;20467;-58
2024/01/09 11:18:18;;;;;;;21.00;19.47;;;2.50;2.70;;;;;;5016206;28;20427;-58
2024/01/09 11:20:44;;;;;;;20.07;18.53;;;2.70;3.60;;;;;;5016056;28;20950;-58
2024/01/09 11:23:13;;;;;;;21.03;19.23;;;2.80;3.10;;;;;;5015366;28;20423;-61
2024/01/09 11:25:39;;;;;;;20.97;19.37;;;2.80;2.90;;;;;;5021631;28;20272;-61
2024/01/09 11:28:07;;;;;;;19.33;17.93;;;2.70;2.80;;;;;;5015285;28;20442;-61
2024/01/09 11:30:32;;;;;;;19.97;18.47;;;2.50;3.00;;;;;;5015828;28;20435;-61
2024/01/09 11:33:29;;;;;;;20.10;18.60;;;2.20;3.80;;;;;;5021833;28;20427;-62
2024/01/09 11:35:55;;;;;;;20.77;19.17;;;2.40;3.80;;;;;;5014952;28;20770;-61
2024/01/09 11:38:21;;;;;;;21.97;20.27;;;2.60;2.70;;;;;;5015849;28;20271;-61
2024/01/09 11:40:47;;;;;;;24.40;22.40;;;2.70;2.60;;;;;;5023974;28;20652;-61
2024/01/09 11:43:13;;;;;;;24.13;21.80;;;2.60;2.90;;;;;;5014895;28;20435;-60
2024/01/09 11:45:39;;;;;;;20.47;18.87;;;2.70;3.20;;;;;;5018047;28;20191;-60
2024/01/09 11:48:05;;;;;;;20.47;19.00;;;2.60;3.00;;;;;;5021573;28;20792;-60
2024/01/09 11:50:31;;;;;;;21.23;19.63;;;2.50;2.80;;;;;;5043012;28;20426;-60
2024/01/09 11:52:58;;;;;;;19.83;18.33;;;2.70;2.80;;;;;;5022478;28;20450;-61
2024/01/09 11:55:25;;;;;;;20.00;18.50;;;2.80;2.50;;;;;;5015571;28;20184;-59
2024/01/09 11:57:52;;;;;;;20.03;18.60;;;2.80;2.50;;;;;;5015593;28;20435;-60
2024/01/09 12:00:17;;;;;;;19.27;17.77;;;3.00;2.60;;;;;;5015646;28;20514;-60
2024/01/09 12:02:43;;;;;;;18.93;17.60;;;2.80;2.50;;;;;;5015370;28;20836;-60
2024/01/09 12:05:09;;;;;;;18.13;16.60;;;3.00;4.40;;;;;;5015381;28;20633;-61
2024/01/09 12:07:40;;;;;;;20.07;18.50;;;3.00;3.40;;;;;;5022134;28;20185;-60
2024/01/09 12:10:08;;;;;;;20.17;18.60;;;2.80;2.50;;;;;;5021274;28;20436;-61
2024/01/09 12:12:34;;;;;;;19.30;17.83;;;2.90;2.60;;;;;;5016526;28;20435;-60
2024/01/09 12:15:01;;;;;;;17.03;15.63;;;2.80;2.50;;;;;;5023625;28;20494;-56
2024/01/09 12:17:36;;;;;;;18.17;16.77;;;2.80;2.50;;;;;;5025118;28;20815;-55
2024/01/09 12:20:03;;;;;;;19.60;18.07;;;2.80;2.50;;;;;;5026435;28;20921;-57
2024/01/09 12:22:33;;;;;;;19.73;18.27;;;2.90;2.60;;;;;;5022287;28;20581;-57
2024/01/09 12:25:00;;;;;;;17.90;16.70;;;3.00;2.60;;;;;;5015093;28;20436;-55
2024/01/09 12:27:26;;;;;;;18.50;17.00;;;3.10;2.90;;;;;;5014533;28;20445;-56
2024/01/09 12:29:52;;;;;;;17.60;16.30;;;3.30;1.80;;;;;;5026114;28;20426;-54
2024/01/09 12:32:21;;;;;;;17.63;16.33;;;3.40;1.80;;;;;;5017877;28;21026;-61
2024/01/09 12:34:46;;;;;;;20.47;18.80;;;3.30;2.10;;;;;;5013445;28;20584;-61
2024/01/09 12:37:12;;;;;;;18.03;16.73;;;3.30;2.00;;;;;;5014424;28;20467;-62
2024/01/09 12:39:39;;;;;;;16.73;15.50;;;3.30;1.90;;;;;;5016326;28;20187;-61
2024/01/09 12:42:10;;;;;;;18.70;17.10;;;3.40;2.10;;;;;;5020245;28;20489;-61